Time;durP1;ratioP1;P1;durP2;ratioP2;P2;SDS_P1;SDS_P2;PMS_P1;PMS_P2;Temp;Humidity;BMP_temperature;BMP_pressure;BME280_temperature;BME280_humidity;BME280_pressure;Samples;Min_cycle;Max_cycle;Signal;HPM_P1;HPM_P2
2021/12/18 00:01:45;;;;;;;26.10;14.20;;;3.00;99.90;;;;;;5032330;28;20458;-72
2021/12/18 00:04:14;;;;;;;23.10;13.00;;;3.00;99.90;;;;;;5032062;28;20989;-70
2021/12/18 00:06:40;;;;;;;23.10;13.03;;;3.00;99.90;;;;;;5032211;28;20524;-72
2021/12/18 00:09:08;;;;;;;26.50;14.20;;;2.90;99.90;;;;;;5032435;28;20453;-72
2021/12/18 00:11:35;;;;;;;27.60;15.20;;;2.90;99.90;;;;;;5023872;28;20464;-69
2021/12/18 00:14:02;;;;;;;25.60;13.93;;;2.80;99.90;;;;;;5012751;28;20485;-70
2021/12/18 00:16:28;;;;;;;34.00;14.00;;;2.80;99.90;;;;;;5023646;28;20477;-72
2021/12/18 00:18:57;;;;;;;25.73;14.60;;;2.80;99.90;;;;;;5031863;28;20823;-71
2021/12/18 00:21:26;;;;;;;27.30;14.70;;;2.80;99.90;;;;;;5031904;28;20944;-72
2021/12/18 00:23:53;;;;;;;26.60;14.93;;;2.70;99.90;;;;;;5031526;28;20453;-72
2021/12/18 00:26:20;;;;;;;25.80;14.00;;;2.70;99.90;;;;;;5032066;28;20895;-72
2021/12/18 00:28:47;;;;;;;23.40;14.00;;;2.70;99.90;;;;;;5032715;28;20454;-71
2021/12/18 00:31:14;;;;;;;28.50;15.40;;;2.70;99.90;;;;;;5031704;28;20779;-71
2021/12/18 00:33:40;;;;;;;27.20;14.70;;;2.70;99.90;;;;;;5033876;28;20507;-72
2021/12/18 00:36:07;;;;;;;24.40;14.80;;;2.60;99.90;;;;;;5035952;28;20469;-70
2021/12/18 00:38:35;;;;;;;23.13;14.63;;;2.60;99.90;;;;;;5035582;28;20445;-70
2021/12/18 00:41:15;;;;;;;25.27;13.60;;;2.60;99.90;;;;;;5035532;28;20457;-70
2021/12/18 00:46:23;;;;;;;28.50;13.70;;;2.60;99.90;;;;;;5034424;28;20457;-73
2021/12/18 00:48:50;;;;;;;28.23;14.80;;;2.60;99.90;;;;;;5036109;28;20452;-72
2021/12/18 00:51:17;;;;;;;28.40;14.57;;;2.50;99.90;;;;;;5035812;28;20449;-71
2021/12/18 00:53:45;;;;;;;25.40;14.00;;;2.50;99.90;;;;;;5036203;28;20445;-72
2021/12/18 00:56:12;;;;;;;26.17;13.83;;;2.50;99.90;;;;;;5034923;28;20469;-72
2021/12/18 00:58:39;;;;;;;28.03;14.87;;;2.50;99.90;;;;;;5035888;28;20457;-72
2021/12/18 01:01:09;;;;;;;28.60;14.73;;;2.50;99.90;;;;;;5035362;28;20449;-72
2021/12/18 01:03:36;;;;;;;26.10;14.50;;;2.50;99.90;;;;;;5036318;28;20454;-72
2021/12/18 01:06:03;;;;;;;29.67;14.83;;;2.50;99.90;;;;;;5036059;28;20449;-71
2021/12/18 01:08:30;;;;;;;26.60;14.20;;;2.60;99.90;;;;;;5035498;28;20453;-72
2021/12/18 01:11:15;;;;;;;30.67;14.50;;;2.60;99.90;;;;;;5035360;28;20460;-73
2021/12/18 01:13:55;;;;;;;30.33;15.87;;;2.60;99.90;;;;;;5016360;28;20461;-72
2021/12/18 01:16:24;;;;;;;28.90;15.60;;;2.70;99.90;;;;;;5026237;28;20481;-73
2021/12/18 01:24:19;;;;;;;34.40;15.90;;;2.80;99.90;;;;;;5035302;28;20429;-70
2021/12/18 01:26:47;;;;;;;32.50;16.60;;;2.80;99.90;;;;;;5035069;28;20485;-70
2021/12/18 01:29:14;;;;;;;31.17;16.40;;;2.80;99.90;;;;;;5034872;28;20458;-70
2021/12/18 01:31:41;;;;;;;35.97;17.73;;;2.90;99.90;;;;;;5034966;28;20663;-70
2021/12/18 01:34:07;;;;;;;33.40;16.13;;;2.90;99.90;;;;;;5027229;28;20521;-70
2021/12/18 01:36:34;;;;;;;31.20;16.50;;;2.90;99.90;;;;;;5015142;28;20474;-70
2021/12/18 01:39:03;;;;;;;33.20;16.70;;;2.90;99.90;;;;;;5030481;28;20453;-70
2021/12/18 01:41:36;;;;;;;34.00;17.10;;;3.00;99.90;;;;;;5034882;28;20457;-70
2021/12/18 01:46:59;;;;;;;38.80;18.00;;;3.00;99.90;;;;;;5025642;28;20465;-69
2021/12/18 01:52:19;;;;;;;40.50;18.40;;;3.10;99.90;;;;;;5034444;28;20421;-70
2021/12/18 01:54:47;;;;;;;45.53;17.77;;;3.20;99.90;;;;;;5034094;28;20513;-70
2021/12/18 01:57:14;;;;;;;41.17;17.97;;;3.20;99.90;;;;;;5033927;28;20476;-70
2021/12/18 01:59:47;;;;;;;43.13;19.77;;;3.20;99.90;;;;;;5034844;28;20445;-70
2021/12/18 02:02:14;;;;;;;43.67;18.83;;;3.30;99.90;;;;;;5026280;28;20480;-70
2021/12/18 02:04:41;;;;;;;37.77;18.43;;;3.30;99.90;;;;;;5017143;28;20454;-70
2021/12/18 02:07:08;;;;;;;42.13;19.07;;;3.40;99.90;;;;;;5032314;28;20477;-70
2021/12/18 02:09:53;;;;;;;38.97;17.77;;;3.40;99.90;;;;;;5034757;28;20453;-70
2021/12/18 02:12:25;;;;;;;41.20;18.50;;;3.40;99.90;;;;;;5034672;28;20496;-70
2021/12/18 02:20:35;;;;;;;37.97;17.37;;;3.50;99.90;;;;;;5033682;28;20813;-70
2021/12/18 02:23:03;;;;;;;40.07;18.13;;;3.40;99.90;;;;;;5034176;28;20456;-70
2021/12/18 02:25:31;;;;;;;40.20;19.83;;;3.50;99.90;;;;;;5033732;28;20949;-70
2021/12/18 02:27:58;;;;;;;34.97;17.13;;;3.50;99.90;;;;;;5052915;23;20514;-69
2021/12/18 02:30:25;;;;;;;41.67;19.40;;;3.50;99.90;;;;;;5015566;28;20523;-69
2021/12/18 02:32:53;;;;;;;38.53;18.90;;;3.50;99.90;;;;;;5033061;28;20452;-69
2021/12/18 02:35:29;;;;;;;37.73;18.23;;;3.50;99.90;;;;;;5033020;28;20492;-69
2021/12/18 02:38:08;;;;;;;42.60;18.47;;;3.50;99.90;;;;;;5026741;28;20466;-70
2021/12/18 02:43:29;;;;;;;43.60;18.50;;;3.60;99.90;;;;;;5029356;28;20469;-69
2021/12/18 02:45:59;;;;;;;40.70;17.27;;;3.60;99.90;;;;;;5032101;28;20449;-69
2021/12/18 02:48:28;;;;;;;40.80;18.17;;;3.60;99.90;;;;;;5032703;28;20560;-69
2021/12/18 02:50:56;;;;;;;37.67;18.60;;;3.50;99.90;;;;;;5032369;28;20449;-69
2021/12/18 02:53:24;;;;;;;49.33;19.70;;;3.60;99.90;;;;;;5032304;28;21025;-69
2021/12/18 02:55:58;;;;;;;35.80;17.53;;;3.60;99.90;;;;;;5031709;28;20484;-69
2021/12/18 02:58:25;;;;;;;41.60;18.23;;;3.60;99.90;;;;;;5026952;28;20473;-69
2021/12/18 03:00:54;;;;;;;40.77;17.93;;;3.60;99.90;;;;;;5032058;28;20456;-69
2021/12/18 03:03:24;;;;;;;43.30;18.07;;;3.60;99.90;;;;;;5032525;28;20532;-69
2021/12/18 03:06:07;;;;;;;39.70;17.73;;;3.60;99.90;;;;;;5032333;28;20450;-69
2021/12/18 03:08:42;;;;;;;37.03;18.23;;;3.60;99.90;;;;;;5032422;28;20483;-69
2021/12/18 03:25:00;;;;;;;40.90;17.80;;;3.60;99.90;;;;;;4998706;28;20446;-69
2021/12/18 03:27:27;;;;;;;45.13;18.07;;;3.60;99.90;;;;;;5021612;28;20485;-69
2021/12/18 03:29:55;;;;;;;44.63;18.97;;;3.70;99.90;;;;;;5032274;28;20449;-69
2021/12/18 03:32:22;;;;;;;38.30;18.70;;;3.70;99.90;;;;;;5031075;28;20457;-69
2021/12/18 03:34:49;;;;;;;45.07;19.17;;;3.70;99.90;;;;;;5019289;28;20485;-69
2021/12/18 03:37:17;;;;;;;40.97;17.93;;;3.70;99.90;;;;;;5013174;28;20470;-69
2021/12/18 03:39:47;;;;;;;43.00;17.67;;;3.70;99.90;;;;;;5032025;28;20552;-69
2021/12/18 03:42:14;;;;;;;43.40;19.00;;;3.70;99.90;;;;;;5031355;28;20856;-69
2021/12/18 03:44:40;;;;;;;41.37;19.17;;;3.80;99.90;;;;;;5031623;28;20461;-69
2021/12/18 03:47:07;;;;;;;42.83;19.40;;;3.80;99.90;;;;;;5031057;28;20485;-69
2021/12/18 03:49:35;;;;;;;41.87;17.80;;;3.70;99.90;;;;;;5019163;28;20450;-69
2021/12/18 03:52:02;;;;;;;43.17;19.13;;;3.80;99.90;;;;;;5018712;28;20496;-69
2021/12/18 03:54:30;;;;;;;48.60;20.70;;;3.80;99.90;;;;;;5031702;28;20449;-69
2021/12/18 03:56:56;;;;;;;44.40;19.10;;;3.80;99.90;;;;;;5030892;28;20473;-69
2021/12/18 03:59:23;;;;;;;53.13;19.20;;;3.80;99.90;;;;;;5031659;28;20980;-69
2021/12/18 04:01:51;;;;;;;44.80;18.63;;;3.80;99.90;;;;;;5027120;28;20451;-69
2021/12/18 04:04:17;;;;;;;44.60;19.30;;;3.80;99.90;;;;;;5012039;28;20450;-69
2021/12/18 04:06:44;;;;;;;49.80;19.83;;;3.80;99.90;;;;;;5011614;28;20849;-69
2021/12/18 04:09:12;;;;;;;47.50;19.07;;;3.80;99.90;;;;;;5011650;28;20500;-69
2021/12/18 04:11:41;;;;;;;52.17;18.47;;;3.90;99.90;;;;;;5011598;28;20873;-69
2021/12/18 04:14:10;;;;;;;47.87;20.40;;;3.90;99.90;;;;;;5028991;28;20972;-69
2021/12/18 04:16:37;;;;;;;56.57;21.07;;;3.90;99.90;;;;;;5030350;28;20496;-69
2021/12/18 04:19:04;;;;;;;59.07;22.37;;;3.90;99.90;;;;;;5031537;28;20450;-69
2021/12/18 04:21:32;;;;;;;54.03;20.97;;;3.90;99.90;;;;;;5031341;28;20461;-69
2021/12/18 04:24:00;;;;;;;57.87;21.80;;;4.00;99.90;;;;;;5031240;28;20457;-69
2021/12/18 04:26:26;;;;;;;60.40;20.70;;;3.90;99.90;;;;;;5030660;28;20952;-69
2021/12/18 04:28:54;;;;;;;60.30;22.07;;;4.00;99.90;;;;;;5031593;28;20453;-69
2021/12/18 04:31:21;;;;;;;60.17;22.90;;;4.00;99.90;;;;;;5025385;28;20445;-69
2021/12/18 04:33:48;;;;;;;69.37;22.83;;;4.00;99.90;;;;;;5031339;28;20449;-69
2021/12/18 04:36:15;;;;;;;65.20;22.20;;;4.00;99.90;;;;;;5030889;28;20481;-69
2021/12/18 04:38:41;;;;;;;62.27;21.13;;;4.10;99.90;;;;;;5018584;28;20457;-69
2021/12/18 04:41:10;;;;;;;66.17;21.70;;;4.10;99.90;;;;;;5021080;28;20449;-69
2021/12/18 04:43:37;;;;;;;57.57;20.77;;;4.10;99.90;;;;;;5031335;28;20453;-69
2021/12/18 04:46:05;;;;;;;63.63;22.70;;;4.10;99.90;;;;;;5030121;28;20838;-69
2021/12/18 04:48:31;;;;;;;65.40;21.90;;;4.10;99.90;;;;;;5031145;28;20449;-69
2021/12/18 04:50:58;;;;;;;57.53;21.70;;;4.10;99.90;;;;;;5030330;28;20464;-69
2021/12/18 04:53:25;;;;;;;71.97;22.10;;;4.20;99.90;;;;;;5031091;28;20810;-69
2021/12/18 04:55:51;;;;;;;65.83;22.07;;;4.20;99.90;;;;;;5030681;28;20481;-69
2021/12/18 04:58:18;;;;;;;67.60;21.77;;;4.20;99.90;;;;;;5023791;28;20474;-69
2021/12/18 05:00:47;;;;;;;62.47;21.47;;;4.20;99.90;;;;;;5016288;28;20515;-69
2021/12/18 05:03:17;;;;;;;64.07;23.00;;;4.20;99.90;;;;;;5031128;28;20492;-69
2021/12/18 05:05:45;;;;;;;71.07;22.20;;;4.20;99.90;;;;;;5030754;28;20441;-69
2021/12/18 05:08:11;;;;;;;67.57;21.80;;;4.10;99.90;;;;;;5031011;28;20535;-69
2021/12/18 05:10:38;;;;;;;64.77;21.33;;;4.20;99.90;;;;;;5030941;28;20449;-69
2021/12/18 05:13:05;;;;;;;68.47;22.87;;;4.20;99.90;;;;;;5030928;28;20445;-69
2021/12/18 05:15:32;;;;;;;73.27;24.80;;;4.20;99.90;;;;;;5029884;28;20838;-69
2021/12/18 05:17:59;;;;;;;66.60;22.07;;;4.20;99.90;;;;;;5030583;28;20483;-69
2021/12/18 05:20:27;;;;;;;59.63;21.40;;;4.20;99.90;;;;;;5033285;28;20461;-69
2021/12/18 05:22:53;;;;;;;70.77;21.17;;;4.20;99.90;;;;;;5034611;28;20449;-69
2021/12/18 05:25:20;;;;;;;63.43;20.40;;;4.20;99.90;;;;;;5026975;28;20450;-69
2021/12/18 05:27:47;;;;;;;84.83;24.47;;;4.20;99.90;;;;;;5014515;28;20535;-69
2021/12/18 05:30:14;;;;;;;62.87;22.23;;;4.20;99.90;;;;;;5018119;28;20991;-69
2021/12/18 05:32:41;;;;;;;76.37;21.67;;;4.30;99.90;;;;;;5033594;28;20453;-69
2021/12/18 05:35:09;;;;;;;75.10;21.10;;;4.30;99.90;;;;;;5020100;28;20484;-69
2021/12/18 05:37:49;;;;;;;62.50;20.30;;;4.20;99.90;;;;;;5017832;28;20465;-69
2021/12/18 05:40:17;;;;;;;67.53;22.40;;;4.20;99.90;;;;;;5033915;28;20461;-69
2021/12/18 05:42:44;;;;;;;76.37;21.40;;;4.20;99.90;;;;;;5034066;28;20460;-69
2021/12/18 05:45:11;;;;;;;69.57;22.83;;;4.20;99.90;;;;;;5033387;28;20547;-69
2021/12/18 05:47:38;;;;;;;67.27;20.83;;;4.20;99.90;;;;;;5026832;28;20528;-69
2021/12/18 05:50:06;;;;;;;64.93;20.17;;;4.30;99.90;;;;;;5014369;28;20465;-69
2021/12/18 05:52:33;;;;;;;74.50;21.17;;;4.30;99.90;;;;;;5013890;28;20461;-69
2021/12/18 05:55:01;;;;;;;59.23;20.70;;;4.30;99.90;;;;;;5014780;28;20458;-69
2021/12/18 05:57:28;;;;;;;62.73;21.43;;;4.30;99.90;;;;;;5033835;28;21012;-69
2021/12/18 05:59:55;;;;;;;70.33;22.57;;;4.30;99.90;;;;;;5033585;28;20453;-69
2021/12/18 06:02:21;;;;;;;73.40;22.27;;;4.30;99.90;;;;;;5026563;28;20462;-69
2021/12/18 06:04:48;;;;;;;72.40;22.27;;;4.30;99.90;;;;;;5013889;28;20446;-69
2021/12/18 06:07:28;;;;;;;59.30;21.10;;;4.30;99.90;;;;;;5013574;28;20477;-69
2021/12/18 06:09:55;;;;;;;77.03;20.17;;;4.30;99.90;;;;;;5014037;28;20454;-69
2021/12/18 06:12:23;;;;;;;69.37;22.57;;;4.30;99.90;;;;;;5031947;28;20464;-69
2021/12/18 06:14:50;;;;;;;65.60;21.23;;;4.40;99.90;;;;;;5033417;28;20449;-69
2021/12/18 06:17:16;;;;;;;55.43;19.50;;;4.40;99.90;;;;;;5031398;28;20906;-72
2021/12/18 06:19:43;;;;;;;75.13;22.10;;;4.40;99.90;;;;;;5033263;28;20503;-69
2021/12/18 06:22:10;;;;;;;64.63;21.10;;;4.40;99.90;;;;;;5033460;28;20449;-69
2021/12/18 06:24:36;;;;;;;65.63;22.10;;;4.40;99.90;;;;;;5033212;28;20453;-69
2021/12/18 06:27:03;;;;;;;67.73;23.57;;;4.40;99.90;;;;;;5032869;28;20534;-69
2021/12/18 06:29:33;;;;;;;69.63;23.00;;;4.30;99.90;;;;;;5033315;28;20511;-69
2021/12/18 06:32:00;;;;;;;55.77;23.27;;;4.30;99.90;;;;;;5027153;28;20466;-69
2021/12/18 06:34:27;;;;;;;63.97;24.20;;;4.20;99.90;;;;;;5015704;28;20585;-69
2021/12/18 06:36:54;;;;;;;63.97;24.00;;;4.10;99.90;;;;;;5013083;28;20497;-69
2021/12/18 06:39:20;;;;;;;69.97;24.97;;;4.10;99.90;;;;;;5024684;28;20461;-69
2021/12/18 06:41:48;;;;;;;75.33;24.27;;;4.10;99.90;;;;;;5032845;28;20450;-69
2021/12/18 06:44:15;;;;;;;73.27;23.70;;;4.10;99.90;;;;;;5033071;28;20453;-69
2021/12/18 06:46:43;;;;;;;75.83;23.67;;;4.00;99.90;;;;;;5031440;28;20565;-69
2021/12/18 06:49:10;;;;;;;70.60;24.40;;;4.10;99.90;;;;;;5032812;28;20449;-69
2021/12/18 06:51:37;;;;;;;67.17;23.30;;;4.10;99.90;;;;;;5032702;28;20449;-69
2021/12/18 06:54:04;;;;;;;73.20;25.80;;;4.20;99.90;;;;;;5032884;28;20449;-69
2021/12/18 06:56:31;;;;;;;71.57;23.93;;;4.20;99.90;;;;;;5032171;28;20535;-69
2021/12/18 06:58:57;;;;;;;67.23;21.90;;;4.20;99.90;;;;;;5019843;28;20508;-69
2021/12/18 07:01:24;;;;;;;81.37;25.33;;;4.20;99.90;;;;;;5023538;28;20511;-69
2021/12/18 07:03:52;;;;;;;72.50;23.50;;;4.20;99.90;;;;;;5032658;28;20457;-69
2021/12/18 07:06:18;;;;;;;83.07;25.43;;;4.20;99.90;;;;;;5032362;28;20453;-69
2021/12/18 07:08:45;;;;;;;78.70;26.63;;;4.10;99.90;;;;;;5032433;28;20941;-70
2021/12/18 07:11:12;;;;;;;80.37;23.33;;;4.20;99.90;;;;;;5032126;28;20838;-69
2021/12/18 07:13:39;;;;;;;79.30;27.23;;;4.10;99.90;;;;;;5031730;28;20889;-70
2021/12/18 07:16:06;;;;;;;90.10;26.57;;;4.10;99.90;;;;;;5031752;28;20481;-70
2021/12/18 07:18:32;;;;;;;79.20;24.53;;;4.10;99.90;;;;;;5027941;28;20454;-69
2021/12/18 07:21:00;;;;;;;84.40;24.67;;;4.10;99.90;;;;;;5012558;28;20513;-70
2021/12/18 07:23:27;;;;;;;76.10;25.07;;;4.10;99.90;;;;;;5012891;28;20489;-69
2021/12/18 07:25:54;;;;;;;89.50;24.40;;;4.10;99.90;;;;;;5012013;28;20846;-69
2021/12/18 07:28:20;;;;;;;87.40;25.47;;;4.00;99.90;;;;;;5028653;28;20485;-70
2021/12/18 07:30:47;;;;;;;79.00;25.33;;;4.00;99.90;;;;;;5031536;28;20457;-70
2021/12/18 07:33:13;;;;;;;81.50;26.97;;;4.00;99.90;;;;;;5031821;28;20519;-70
2021/12/18 07:35:41;;;;;;;80.23;25.63;;;4.10;99.90;;;;;;5031702;28;20499;-70
2021/12/18 07:38:10;;;;;;;88.73;26.50;;;4.20;99.90;;;;;;5023335;28;21048;-70
2021/12/18 07:40:37;;;;;;;74.90;26.00;;;4.20;99.90;;;;;;5030258;28;20995;-70
2021/12/18 07:43:05;;;;;;;86.27;25.70;;;4.20;99.90;;;;;;5027359;28;20454;-70
2021/12/18 07:45:33;;;;;;;77.43;25.00;;;4.20;99.90;;;;;;5031097;28;20449;-70
2021/12/18 07:48:00;;;;;;;69.87;25.40;;;4.20;99.90;;;;;;5031689;28;20996;-70
2021/12/18 07:50:27;;;;;;;71.30;26.47;;;4.20;99.90;;;;;;5031461;28;20503;-70
2021/12/18 07:52:53;;;;;;;75.60;26.77;;;4.30;99.90;;;;;;5032104;28;20511;-70
2021/12/18 07:55:22;;;;;;;73.47;24.53;;;4.20;99.90;;;;;;5031047;28;20476;-70
2021/12/18 07:57:50;;;;;;;68.97;23.97;;;4.20;99.90;;;;;;5031130;28;20488;-70
2021/12/18 08:00:18;;;;;;;67.83;22.30;;;4.20;99.90;;;;;;5030212;28;20960;-70
2021/12/18 08:02:45;;;;;;;66.37;24.17;;;4.20;99.90;;;;;;5031315;28;20999;-70
2021/12/18 08:05:14;;;;;;;63.80;22.00;;;4.20;99.90;;;;;;5030787;28;20613;-69
2021/12/18 08:07:40;;;;;;;58.87;22.90;;;4.20;99.90;;;;;;5029141;28;20508;-70
2021/12/18 08:10:08;;;;;;;56.27;20.73;;;4.20;99.90;;;;;;5030026;28;21011;-70
2021/12/18 08:12:36;;;;;;;70.43;21.63;;;4.20;99.90;;;;;;5011783;28;20454;-70
2021/12/18 08:15:04;;;;;;;55.07;22.20;;;4.20;99.90;;;;;;5010785;28;20504;-72
2021/12/18 08:17:30;;;;;;;57.50;21.27;;;4.20;99.90;;;;;;5010759;28;20490;-72
2021/12/18 08:19:57;;;;;;;63.43;23.20;;;4.20;99.90;;;;;;5011616;28;20512;-72
2021/12/18 08:22:24;;;;;;;59.97;21.80;;;4.20;99.90;;;;;;5010720;28;20462;-72
2021/12/18 08:24:50;;;;;;;59.67;22.53;;;4.20;99.90;;;;;;5013811;28;20503;-72
2021/12/18 08:27:17;;;;;;;69.03;21.77;;;4.20;99.90;;;;;;5044414;22;20611;-72
2021/12/18 08:29:45;;;;;;;76.17;27.63;;;4.20;99.90;;;;;;5018807;28;20828;-73
2021/12/18 08:32:12;;;;;;;71.97;24.63;;;4.20;99.90;;;;;;5025465;28;20453;-73
2021/12/18 08:34:39;;;;;;;70.53;23.83;;;4.30;99.90;;;;;;5022064;28;20937;-74
2021/12/18 08:37:06;;;;;;;62.00;21.27;;;4.30;99.90;;;;;;5021446;28;20539;-73
2021/12/18 08:39:32;;;;;;;66.13;22.40;;;4.30;99.90;;;;;;5011589;28;20461;-74
2021/12/18 08:42:03;;;;;;;59.40;21.57;;;4.40;99.90;;;;;;5003117;28;20483;-74
2021/12/18 08:44:30;;;;;;;54.90;21.07;;;4.30;99.90;;;;;;5005352;28;20665;-74
2021/12/18 08:46:58;;;;;;;63.13;20.43;;;4.40;99.90;;;;;;5012098;28;20461;-74
2021/12/18 08:49:26;;;;;;;62.90;21.27;;;4.30;99.90;;;;;;5010219;28;20488;-74
2021/12/18 08:51:52;;;;;;;62.53;22.37;;;4.30;99.90;;;;;;5012010;28;20446;-74
2021/12/18 08:54:19;;;;;;;56.93;22.17;;;4.30;99.90;;;;;;5009882;28;20446;-73
2021/12/18 08:56:46;;;;;;;62.00;21.50;;;4.30;99.90;;;;;;5015255;28;20482;-73
2021/12/18 08:59:13;;;;;;;57.40;18.80;;;4.30;99.90;;;;;;5004804;28;20462;-74
2021/12/18 09:01:40;;;;;;;66.70;20.67;;;4.30;99.90;;;;;;4995602;28;20462;-74
2021/12/18 09:04:08;;;;;;;62.57;20.23;;;4.30;99.90;;;;;;5008642;28;20942;-73
2021/12/18 09:06:35;;;;;;;54.47;20.30;;;4.30;99.90;;;;;;5015318;28;20484;-73
2021/12/18 09:09:02;;;;;;;61.13;20.60;;;4.40;99.90;;;;;;5015360;28;20446;-73
2021/12/18 09:11:28;;;;;;;67.40;22.33;;;4.40;99.90;;;;;;5015210;28;20454;-73
2021/12/18 09:13:55;;;;;;;54.30;19.40;;;4.50;99.90;;;;;;5019779;28;20449;-73
2021/12/18 09:16:22;;;;;;;53.33;19.27;;;4.50;99.90;;;;;;5033991;28;21011;-73
2021/12/18 09:18:48;;;;;;;51.67;20.63;;;4.50;99.90;;;;;;5020180;28;20474;-74
2021/12/18 09:21:16;;;;;;;58.00;20.40;;;4.50;99.90;;;;;;5014347;28;20463;-73
2021/12/18 09:23:43;;;;;;;52.47;19.40;;;4.60;99.90;;;;;;5014516;28;20509;-73
2021/12/18 09:26:10;;;;;;;56.33;19.90;;;4.50;99.90;;;;;;5014276;28;20545;-73
2021/12/18 09:28:36;;;;;;;58.33;20.03;;;4.50;99.90;;;;;;5014713;28;20482;-72
2021/12/18 09:31:03;;;;;;;73.23;18.90;;;4.50;99.90;;;;;;5012135;28;20525;-74
2021/12/18 09:33:30;;;;;;;60.80;18.57;;;4.60;99.90;;;;;;5013478;28;20446;-74
2021/12/18 09:35:57;;;;;;;48.00;17.80;;;4.60;99.90;;;;;;5013898;28;20524;-73
2021/12/18 09:38:25;;;;;;;51.60;18.53;;;4.60;99.90;;;;;;5014337;28;20485;-74
2021/12/18 09:40:52;;;;;;;45.30;17.17;;;4.60;99.90;;;;;;5014023;28;21004;-74
2021/12/18 09:43:18;;;;;;;46.27;16.37;;;4.50;99.90;;;;;;5012722;28;20508;-74
2021/12/18 09:45:46;;;;;;;47.30;16.37;;;4.50;99.90;;;;;;5007853;28;20528;-74
2021/12/18 09:48:12;;;;;;;40.40;16.67;;;4.60;99.90;;;;;;5013347;28;20478;-73
2021/12/18 09:50:42;;;;;;;57.70;17.43;;;4.60;99.90;;;;;;4995721;28;20505;-74
2021/12/18 09:53:09;;;;;;;41.37;15.33;;;4.60;99.90;;;;;;4994649;28;20824;-75
2021/12/18 09:55:37;;;;;;;47.27;15.63;;;4.70;99.90;;;;;;4994719;28;20459;-74
2021/12/18 09:58:04;;;;;;;48.37;15.37;;;4.80;99.90;;;;;;5008318;28;20493;-75
2021/12/18 10:00:30;;;;;;;44.50;14.83;;;4.80;99.90;;;;;;5014364;28;20457;-74
2021/12/18 10:02:57;;;;;;;37.20;13.90;;;4.80;99.90;;;;;;5013890;28;20540;-74
2021/12/18 10:05:27;;;;;;;44.87;14.93;;;4.80;99.90;;;;;;5013848;28;20863;-74
2021/12/18 10:08:08;;;;;;;35.73;14.43;;;4.80;99.90;;;;;;5014343;28;20470;-75
2021/12/18 10:10:37;;;;;;;33.63;12.60;;;4.80;99.90;;;;;;5014179;28;20976;-75
2021/12/18 10:13:06;;;;;;;36.03;13.23;;;4.80;99.90;;;;;;5014235;28;20451;-75
2021/12/18 10:15:33;;;;;;;31.90;13.33;;;4.80;99.90;;;;;;5014022;28;20962;-75
2021/12/18 10:18:08;;;;;;;31.60;12.80;;;4.90;99.90;;;;;;5002461;28;20578;-74
2021/12/18 10:20:35;;;;;;;32.20;13.07;;;4.90;99.90;;;;;;4994256;28;20481;-74
2021/12/18 10:23:04;;;;;;;33.97;12.87;;;4.90;99.90;;;;;;4996279;28;20451;-74
2021/12/18 10:25:33;;;;;;;29.43;12.23;;;4.90;99.90;;;;;;4995606;28;20467;-75
2021/12/18 10:28:09;;;;;;;32.27;12.90;;;4.90;99.90;;;;;;5003306;28;20540;-75
2021/12/18 10:30:43;;;;;;;31.97;14.60;;;4.90;99.90;;;;;;5013162;28;20812;-75
2021/12/18 10:33:13;;;;;;;36.00;14.67;;;5.00;99.90;;;;;;5014715;28;21246;-73
2021/12/18 10:35:45;;;;;;;29.83;12.20;;;5.10;99.90;;;;;;4997209;28;20451;-75
2021/12/18 10:38:37;;;;;;;33.50;14.97;;;5.20;99.90;;;;;;4998423;28;20494;-75
2021/12/18 10:41:21;;;;;;;26.17;12.50;;;5.20;99.90;;;;;;5006358;28;21020;-75
2021/12/18 10:43:58;;;;;;;32.73;10.83;;;5.20;99.90;;;;;;5013902;28;20897;-76
2021/12/18 10:46:25;;;;;;;25.70;10.60;;;5.30;99.90;;;;;;5014246;28;20512;-77
2021/12/18 10:48:57;;;;;;;23.00;10.30;;;5.20;99.90;;;;;;5013837;28;20485;-74
2021/12/18 10:51:24;;;;;;;26.43;12.30;;;5.30;99.90;;;;;;5014032;28;20459;-75
2021/12/18 10:53:52;;;;;;;28.77;12.60;;;5.30;99.90;;;;;;5014576;28;20458;-77
2021/12/18 10:56:32;;;;;;;27.10;9.87;;;5.20;99.90;;;;;;5013207;28;20524;-74
2021/12/18 10:59:01;;;;;;;25.47;9.90;;;5.20;99.90;;;;;;5003092;28;20573;-74
2021/12/18 11:01:29;;;;;;;22.53;10.80;;;5.10;99.90;;;;;;4993495;28;20526;-73
2021/12/18 11:03:55;;;;;;;26.13;10.90;;;5.10;99.90;;;;;;4993388;28;20997;-75
2021/12/18 11:06:24;;;;;;;21.83;9.93;;;5.00;99.90;;;;;;4993028;28;20455;-76
2021/12/18 11:09:05;;;;;;;26.27;11.30;;;5.00;99.90;;;;;;5010790;28;20524;-73
2021/12/18 11:14:25;;;;;;;24.37;9.60;;;5.00;99.90;;;;;;5012120;28;20956;-74
2021/12/18 11:16:54;;;;;;;24.47;10.50;;;5.10;99.90;;;;;;5011772;28;20507;-72
2021/12/18 11:19:22;;;;;;;18.13;8.70;;;5.10;99.90;;;;;;5012482;28;20904;-71
2021/12/18 11:21:51;;;;;;;15.53;7.80;;;5.10;99.90;;;;;;5012270;28;20450;-72
2021/12/18 11:24:18;;;;;;;12.97;6.47;;;5.10;99.90;;;;;;5012462;28;20458;-72
2021/12/18 11:26:50;;;;;;;11.13;5.80;;;5.20;99.90;;;;;;5005295;28;20454;-72
2021/12/18 11:29:22;;;;;;;12.53;5.60;;;5.10;99.90;;;;;;5005648;28;20949;-73
2021/12/18 11:31:50;;;;;;;14.13;6.70;;;5.20;99.90;;;;;;5008866;28;20589;-72
2021/12/18 11:34:18;;;;;;;13.80;7.20;;;5.20;99.90;;;;;;5012186;28;20514;-74
2021/12/18 11:36:46;;;;;;;12.07;6.40;;;5.20;99.90;;;;;;5013316;28;20457;-74
2021/12/18 11:39:15;;;;;;;15.87;7.90;;;5.30;99.90;;;;;;5013034;28;20990;-74
2021/12/18 11:41:47;;;;;;;9.83;5.30;;;5.30;99.90;;;;;;5012686;28;20454;-75
2021/12/18 11:44:32;;;;;;;8.60;4.67;;;5.40;99.90;;;;;;5012184;28;20512;-74
2021/12/18 11:47:24;;;;;;;12.90;5.10;;;5.40;99.90;;;;;;5011783;28;20531;-74
2021/12/18 11:49:52;;;;;;;11.40;5.80;;;5.40;99.90;;;;;;5012312;28;20478;-74
2021/12/18 11:52:19;;;;;;;13.20;6.63;;;5.30;99.90;;;;;;5012137;28;20458;-74
2021/12/18 11:54:50;;;;;;;13.00;7.40;;;5.30;99.90;;;;;;5011969;28;20446;-74
2021/12/18 11:57:37;;;;;;;20.20;9.00;;;5.30;99.90;;;;;;5011672;28;20484;-73
2021/12/18 12:00:07;;;;;;;17.40;8.57;;;5.30;99.90;;;;;;4992071;28;20935;-74
2021/12/18 12:02:46;;;;;;;17.40;8.20;;;5.40;99.90;;;;;;4992528;28;20459;-74
2021/12/18 12:05:14;;;;;;;16.63;7.67;;;5.40;99.90;;;;;;4993045;28;20451;-74
2021/12/18 12:07:42;;;;;;;15.30;7.20;;;5.30;99.90;;;;;;4992048;28;20475;-75
2021/12/18 12:10:20;;;;;;;12.53;6.43;;;5.30;99.90;;;;;;4991795;28;20467;-75
2021/12/18 12:12:53;;;;;;;17.93;7.23;;;5.40;99.90;;;;;;4997284;28;20486;-75
2021/12/18 12:15:23;;;;;;;14.27;7.00;;;5.40;99.90;;;;;;5011510;28;20454;-72
2021/12/18 12:17:59;;;;;;;15.27;8.40;;;5.40;99.90;;;;;;5010394;28;20486;-75
2021/12/18 12:20:35;;;;;;;12.60;6.60;;;5.40;99.90;;;;;;5011349;28;20508;-74
2021/12/18 12:23:03;;;;;;;11.40;6.80;;;5.40;99.90;;;;;;5011351;28;20930;-72
2021/12/18 12:25:43;;;;;;;13.17;6.97;;;5.50;99.90;;;;;;5011346;28;20458;-74
2021/12/18 12:28:13;;;;;;;10.27;6.50;;;5.50;99.90;;;;;;5008160;28;20850;-74
2021/12/18 12:30:44;;;;;;;12.73;6.87;;;5.40;99.90;;;;;;5014967;28;20455;-74
2021/12/18 12:33:21;;;;;;;17.67;8.80;;;5.40;99.90;;;;;;4998771;28;20466;-74
2021/12/18 12:36:01;;;;;;;17.30;8.13;;;5.40;99.90;;;;;;5006737;28;20481;-73
2021/12/18 12:38:29;;;;;;;19.43;7.87;;;5.30;99.90;;;;;;5005491;28;20481;-74
2021/12/18 12:40:57;;;;;;;15.80;7.93;;;5.40;99.90;;;;;;5007029;28;20446;-73
2021/12/18 12:43:28;;;;;;;13.77;7.93;;;5.40;99.90;;;;;;5014869;28;20454;-74
2021/12/18 12:45:58;;;;;;;17.00;8.00;;;5.40;99.90;;;;;;5005850;28;20546;-75
2021/12/18 12:49:00;;;;;;;14.57;7.40;;;5.40;99.90;;;;;;5005244;28;20940;-75
2021/12/18 12:51:47;;;;;;;15.43;8.40;;;5.50;99.90;;;;;;5014102;28;20544;-76
2021/12/18 12:54:49;;;;;;;19.63;7.80;;;5.50;99.90;;;;;;5014071;28;20446;-75
2021/12/18 12:57:36;;;;;;;13.50;7.00;;;5.60;99.90;;;;;;5011444;28;20465;-75
2021/12/18 13:00:36;;;;;;;16.83;8.67;;;5.60;99.90;;;;;;5014816;28;20457;-76
2021/12/18 13:03:09;;;;;;;15.60;7.53;;;5.70;99.90;;;;;;5011966;28;20527;-75
2021/12/18 13:05:55;;;;;;;9.83;5.67;;;5.70;99.90;;;;;;5014454;28;20457;-75
2021/12/18 13:08:23;;;;;;;13.57;7.33;;;5.70;99.90;;;;;;5013665;28;20470;-75
2021/12/18 13:10:53;;;;;;;12.90;6.90;;;5.60;99.90;;;;;;5013464;28;20505;-74
2021/12/18 13:13:22;;;;;;;12.73;7.07;;;5.60;99.90;;;;;;5012463;28;20458;-73
2021/12/18 13:15:53;;;;;;;15.10;6.83;;;5.50;99.90;;;;;;5014628;28;20458;-74
2021/12/18 13:18:22;;;;;;;16.27;7.40;;;5.50;99.90;;;;;;5012989;28;20555;-73
2021/12/18 13:20:55;;;;;;;13.27;7.13;;;5.50;99.90;;;;;;5014373;28;20507;-74
2021/12/18 13:23:23;;;;;;;13.83;7.30;;;5.60;99.90;;;;;;5014676;28;20454;-74
2021/12/18 13:25:51;;;;;;;17.93;8.47;;;5.50;99.90;;;;;;5014300;28;20512;-75
2021/12/18 13:28:18;;;;;;;14.07;7.13;;;5.50;99.90;;;;;;5013571;28;20486;-76